Aviation Digital Data Service (ADDS)

Output produced by METARs form (2042 UTC 31 January 2023)
found at http://www.aviationweather.gov/metar/data/
 
TAPA 312000Z 07009KT 020V110 9999 FEW018 SCT036 26/20 Q1014 NOSIG
TAPA 311900Z 09011KT 050V140 9999 -SHRA BKN016 SCT034 24/20 Q1014 NOSIG
TAPA 311800Z 06009KT 020V130 9999 VCSH SCT016 27/20 Q1014 NOSIG
TAPA 311700Z 08010KT 050V130 9999 FEW018 BKN034 27/20 Q1015 NOSIG
TAF TAPA 311700Z 3118/0118 06011KT 9999 SCT020 SCT038 
     PROB30 
     TEMPO 0100/0112 SHRA BKN015
       
TRPG 312000Z 09013KT 9999 -SHRA SCT017 BKN038 22/20 Q1016
TRPG 311900Z 09011KT 9999 VCSH SCT020 BKN038 25/21 Q1015
TRPG 311800Z 08015KT 9999 FEW022 26/21 Q1016
TRPG 311700Z 07013KT 9999 FEW019 SCT038 25/22 Q1017
TAF TRPG 311700Z 3118/0118 06013KT 9999 SCT020 SCT038 
     PROB30 
     TEMPO 0100/0112 SHRA BKN015
       
TKPK 312000Z 03010KT 9999 FEW018 26/20 Q1014
TKPK 311900Z 03012KT 9999 FEW021 27/20 Q1014
TKPK 311700Z 04014KT 9999 FEW022 27/19 Q1016
TAF TKPK 311700Z 3118/0118 06011KT 9999 SCT020 SCT038 
     PROB30 
     TEMPO 0100/0112 SHRA BKN015
       
TKPN 312000Z 04013KT 9999 SCT022 26/21 Q1014
TKPN 311900Z 06013KT 9999 SCT022 27/21 Q1014
TKPN 311800Z 06012KT 9999 SCT022 27/20 Q1015
TKPN 311700Z 06011KT 9999 SCT022 27/20 Q1016
TAF TKPN 311700Z 3118/0118 06011KT 9999 SCT020 SCT038 
     PROB30 
     TEMPO 0100/0112 SHRA BKN015
       
TQPF 312000Z 04008KT 9999 SCT020 26/19 Q1015
TQPF 311900Z 03004KT 9999 SCT020 25/21 Q1015
TQPF 311800Z 07012KT 9999 FEW020 27/19 Q1016
TAF TQPF 311700Z 3118/0118 05012KT 9999 SCT020 SCT038 
     PROB30 
     TEMPO 0100/0112 SHRA BKN015
       
TUPJ 312000Z 03008KT 10SM SCT019 27/21 A3000 RMK Q1016 VIS16KM
TUPJ 311900Z 04008KT 10SM SCT019 28/21 A3001 RMK Q1016 VIS16KM
TUPJ 311800Z 03009KT 10SM SCT019 28/21 A3002 RMK Q1016 VIS16KM
TUPJ 311700Z 04010KT 10SM SCT020 28/21 A3004 RMK Q1017 VIS 16KM
TAF TUPJ 311700Z 3118/0118 05012KT 9999 SCT020 SCT038